Time;durP1;ratioP1;P1;durP2;ratioP2;P2;SDS_P1;SDS_P2;PMS_P1;PMS_P2;Temp;Humidity;BMP_temperature;BMP_pressure;BME280_temperature;BME280_humidity;BME280_pressure;Samples;Min_cycle;Max_cycle;Signal;HPM_P1;HPM_P2
2022/10/17 00:02:13;;;;;;;35.63;13.60;;;;;;;;;;5071611;28;20115;-39
2022/10/17 00:04:39;;;;;;;28.77;12.82;;;;;;;;;;5071390;28;20017;-39
2022/10/17 00:07:04;;;;;;;27.52;15.07;;;;;;;;;;5071240;28;20410;-40
2022/10/17 00:09:29;;;;;;;38.10;16.00;;;;;;;;;;5071474;28;20024;-39
2022/10/17 00:11:55;;;;;;;37.63;16.67;;;;;;;;;;5071558;28;20025;-40
2022/10/17 00:14:20;;;;;;;30.40;14.82;;;;;;;;;;5071236;28;20104;-40
2022/10/17 00:16:45;;;;;;;29.05;14.40;;;;;;;;;;5071676;28;20025;-40
2022/10/17 00:19:11;;;;;;;36.60;15.70;;;;;;;;;;5071140;28;20025;-39
2022/10/17 00:21:36;;;;;;;27.85;14.07;;;;;;;;;;5069965;28;20055;-39
2022/10/17 00:24:02;;;;;;;34.75;14.18;;;;;;;;;;5069927;28;20079;-40
2022/10/17 00:26:28;;;;;;;30.50;14.45;;;;;;;;;;5071447;28;20032;-39
2022/10/17 00:28:54;;;;;;;31.35;14.95;;;;;;;;;;5071580;28;20087;-40
2022/10/17 00:31:20;;;;;;;27.50;13.85;;;;;;;;;;5071331;28;20395;-40
2022/10/17 00:33:46;;;;;;;31.20;14.27;;;;;;;;;;5071365;28;20412;-39
2022/10/17 00:36:22;;;;;;;25.88;14.02;;;;;;;;;;5071232;28;20020;-40
2022/10/17 00:38:49;;;;;;;31.70;14.20;;;;;;;;;;5075015;28;20444;-39
2022/10/17 00:41:16;;;;;;;31.08;13.35;;;;;;;;;;5074925;28;20017;-40
2022/10/17 00:44:02;;;;;;;35.72;14.98;;;;;;;;;;5073687;28;20060;-39
2022/10/17 00:46:37;;;;;;;31.55;13.95;;;;;;;;;;5073368;28;20098;-39
2022/10/17 00:49:05;;;;;;;31.55;14.43;;;;;;;;;;5074724;28;20478;-39
2022/10/17 00:51:37;;;;;;;30.23;13.15;;;;;;;;;;5075019;28;20435;-40
2022/10/17 00:54:03;;;;;;;30.88;15.48;;;;;;;;;;5073370;28;20379;-39
2022/10/17 00:56:29;;;;;;;27.83;12.27;;;;;;;;;;5073394;28;20654;-40
2022/10/17 00:58:55;;;;;;;33.20;14.73;;;;;;;;;;5074663;28;20107;-39
2022/10/17 01:01:21;;;;;;;36.38;17.33;;;;;;;;;;5073211;28;20105;-40
2022/10/17 01:03:46;;;;;;;33.75;14.82;;;;;;;;;;5074632;28;20142;-39
2022/10/17 01:06:12;;;;;;;24.25;12.63;;;;;;;;;;5074527;28;20021;-39
2022/10/17 01:08:37;;;;;;;35.20;15.75;;;;;;;;;;5074325;28;20037;-43
2022/10/17 01:11:21;;;;;;;30.88;14.90;;;;;;;;;;5074536;28;20374;-39
2022/10/17 01:14:05;;;;;;;37.50;16.05;;;;;;;;;;5074464;28;20123;-39
2022/10/17 01:16:51;;;;;;;31.92;14.65;;;;;;;;;;5073080;28;20119;-39
2022/10/17 04:36:54;;;;;;;26.40;10.60;;;;;;;;;;5071384;28;20171;-39
2022/10/17 04:39:20;;;;;;;24.58;12.05;;;;;;;;;;5053148;28;20036;-40
2022/10/17 04:41:46;;;;;;;28.88;13.52;;;;;;;;;;5069706;28;20496;-40
2022/10/17 04:44:12;;;;;;;23.40;11.88;;;;;;;;;;5069681;28;20040;-40
2022/10/17 04:46:42;;;;;;;24.02;10.45;;;;;;;;;;5069808;28;20017;-39
2022/10/17 04:49:08;;;;;;;23.15;11.80;;;;;;;;;;5070851;28;20052;-39
2022/10/17 04:51:33;;;;;;;21.33;12.68;;;;;;;;;;5069615;28;20016;-39
2022/10/17 04:54:16;;;;;;;;;;;;;;;;;;5071353;28;20054;-39
2022/10/17 04:56:46;;;;;;;19.42;9.93;;;;;;;;;;5069595;28;20285;-39
2022/10/17 04:59:11;;;;;;;28.48;12.00;;;;;;;;;;5069610;28;20161;-39
2022/10/17 05:01:41;;;;;;;25.27;12.65;;;;;;;;;;5069589;28;20028;-39
2022/10/17 05:04:07;;;;;;;24.08;12.77;;;;;;;;;;5069552;28;20027;-39
2022/10/17 05:06:33;;;;;;;20.83;10.82;;;;;;;;;;5069437;28;20490;-44
2022/10/17 05:09:30;;;;;;;23.65;11.07;;;;;;;;;;5069374;28;20123;-39
2022/10/17 05:11:56;;;;;;;24.98;11.25;;;;;;;;;;5069546;28;20024;-39
2022/10/17 05:14:23;;;;;;;25.35;11.75;;;;;;;;;;5070600;28;20020;-39
2022/10/17 05:16:49;;;;;;;27.35;13.13;;;;;;;;;;5069397;28;20502;-39
2022/10/17 05:19:16;;;;;;;25.38;12.40;;;;;;;;;;5069134;28;20031;-40
2022/10/17 05:21:45;;;;;;;26.35;12.80;;;;;;;;;;5069315;28;20089;-39
2022/10/17 05:24:12;;;;;;;24.58;11.05;;;;;;;;;;5072129;28;20031;-39
2022/10/17 05:26:38;;;;;;;20.88;11.95;;;;;;;;;;5072947;28;20029;-39
2022/10/17 05:29:04;;;;;;;26.08;11.88;;;;;;;;;;5072822;28;20035;-40
2022/10/17 05:31:33;;;;;;;24.27;12.70;;;;;;;;;;5072654;28;20025;-39
2022/10/17 05:34:01;;;;;;;17.98;9.70;;;;;;;;;;5072792;28;20477;-40
2022/10/17 05:36:26;;;;;;;32.60;15.25;;;;;;;;;;5072482;28;20053;-39
2022/10/17 05:38:53;;;;;;;20.67;11.40;;;;;;;;;;5072611;28;20035;-39
2022/10/17 05:41:19;;;;;;;23.90;12.15;;;;;;;;;;5074199;28;20466;-39
2022/10/17 05:43:45;;;;;;;27.50;12.05;;;;;;;;;;5072579;28;20067;-39
2022/10/17 05:46:15;;;;;;;24.63;11.15;;;;;;;;;;5072478;28;20042;-39
2022/10/17 05:48:41;;;;;;;27.23;11.27;;;;;;;;;;5072311;28;20037;-39
2022/10/17 05:51:09;;;;;;;25.60;12.80;;;;;;;;;;5072537;28;20370;-39
2022/10/17 05:53:36;;;;;;;29.52;13.13;;;;;;;;;;5072279;28;20036;-39
2022/10/17 05:56:06;;;;;;;27.95;13.70;;;;;;;;;;5072225;28;20024;-39
2022/10/17 05:58:34;;;;;;;23.27;10.40;;;;;;;;;;5072212;28;20119;-39
2022/10/17 06:01:03;;;;;;;24.50;11.68;;;;;;;;;;5072250;28;20059;-39
2022/10/17 06:03:29;;;;;;;24.00;11.73;;;;;;;;;;5072113;28;20036;-39
2022/10/17 06:05:55;;;;;;;23.77;10.88;;;;;;;;;;5072196;28;20025;-39
2022/10/17 06:08:21;;;;;;;23.33;12.75;;;;;;;;;;5071825;28;20041;-39
2022/10/17 06:10:48;;;;;;;25.83;11.38;;;;;;;;;;5072173;28;20375;-39
2022/10/17 06:13:14;;;;;;;29.17;10.07;;;;;;;;;;5073212;28;20036;-39
2022/10/17 06:15:40;;;;;;;17.88;9.77;;;;;;;;;;5071953;28;20108;-39
2022/10/17 06:18:07;;;;;;;26.05;10.00;;;;;;;;;;5055461;28;20039;-40
2022/10/17 06:20:33;;;;;;;21.48;12.38;;;;;;;;;;5071752;28;20425;-40
2022/10/17 06:22:59;;;;;;;27.77;12.43;;;;;;;;;;5071901;28;20056;-40
2022/10/17 06:25:40;;;;;;;20.48;9.90;;;;;;;;;;5071758;28;20021;-40
2022/10/17 06:28:06;;;;;;;24.15;11.82;;;;;;;;;;5072848;28;20529;-39
2022/10/17 06:30:32;;;;;;;22.98;10.93;;;;;;;;;;5073371;28;20016;-40
2022/10/17 06:32:57;;;;;;;32.70;13.27;;;;;;;;;;5071654;28;20042;-40
2022/10/17 06:35:23;;;;;;;23.75;10.55;;;;;;;;;;5072221;28;20055;-39
2022/10/17 06:37:49;;;;;;;27.83;13.32;;;;;;;;;;5071613;28;20028;-39
2022/10/17 06:40:15;;;;;;;23.13;11.18;;;;;;;;;;5072798;28;20059;-39
2022/10/17 06:42:41;;;;;;;17.98;9.85;;;;;;;;;;5071457;28;20043;-39
2022/10/17 06:45:22;;;;;;;18.98;10.10;;;;;;;;;;5071444;28;20073;-39
2022/10/17 06:48:06;;;;;;;26.05;12.80;;;;;;;;;;5071266;28;20059;-39
2022/10/17 06:50:42;;;;;;;25.08;11.55;;;;;;;;;;5071292;28;20057;-40
2022/10/17 06:53:11;;;;;;;19.23;11.23;;;;;;;;;;5072508;28;20074;-39
2022/10/17 06:55:49;;;;;;;24.73;14.43;;;;;;;;;;5071182;28;20029;-40
2022/10/17 06:58:37;;;;;;;25.73;12.10;;;;;;;;;;5072200;28;20032;-40
2022/10/17 07:01:13;;;;;;;21.98;11.43;;;;;;;;;;5072397;28;20058;-39
2022/10/17 07:03:40;;;;;;;25.25;11.70;;;;;;;;;;5071099;28;20059;-39
2022/10/17 07:06:06;;;;;;;20.77;10.50;;;;;;;;;;5071063;28;20470;-39
2022/10/17 07:08:32;;;;;;;20.50;11.05;;;;;;;;;;5070681;28;20044;-41
2022/10/17 07:11:11;;;;;;;25.27;12.55;;;;;;;;;;5070894;28;20024;-39
2022/10/17 07:13:37;;;;;;;21.23;9.43;;;;;;;;;;5072140;28;20034;-39
2022/10/17 07:16:02;;;;;;;24.15;10.43;;;;;;;;;;5070860;28;20459;-39
2022/10/17 07:18:30;;;;;;;21.77;10.02;;;;;;;;;;5070518;28;20490;-41
2022/10/17 07:20:56;;;;;;;26.77;11.02;;;;;;;;;;5070744;28;20024;-40
2022/10/17 07:23:21;;;;;;;23.13;10.45;;;;;;;;;;5071857;28;20036;-38
2022/10/17 07:25:47;;;;;;;27.20;10.70;;;;;;;;;;5070484;28;20028;-39
2022/10/17 07:28:15;;;;;;;23.38;11.32;;;;;;;;;;5070341;28;20040;-39
2022/10/17 07:30:40;;;;;;;20.77;9.82;;;;;;;;;;5070570;28;20032;-39
2022/10/17 07:33:10;;;;;;;20.35;10.80;;;;;;;;;;5070433;28;20488;-39
2022/10/17 07:35:36;;;;;;;20.85;11.25;;;;;;;;;;5070365;28;20131;-39
2022/10/17 07:38:02;;;;;;;21.58;11.70;;;;;;;;;;5072005;28;20040;-39
2022/10/17 07:40:28;;;;;;;22.73;11.00;;;;;;;;;;5070386;28;20402;-39
2022/10/17 07:42:55;;;;;;;19.30;10.35;;;;;;;;;;5071631;28;20060;-39
2022/10/17 07:45:22;;;;;;;16.25;8.02;;;;;;;;;;5069513;28;20055;-40
2022/10/17 07:47:48;;;;;;;16.35;8.85;;;;;;;;;;5070186;28;20028;-39
2022/10/17 07:50:14;;;;;;;22.35;12.00;;;;;;;;;;5070626;28;20042;-40
2022/10/17 07:52:42;;;;;;;22.20;11.20;;;;;;;;;;5071524;28;20119;-39
2022/10/17 07:55:08;;;;;;;17.10;9.55;;;;;;;;;;5070228;28;20031;-40
2022/10/17 07:57:33;;;;;;;20.45;10.32;;;;;;;;;;5071691;28;20089;-39
2022/10/17 07:59:59;;;;;;;19.52;10.18;;;;;;;;;;5071496;28;20020;-39
2022/10/17 08:02:25;;;;;;;19.60;11.88;;;;;;;;;;5071638;28;20052;-40
2022/10/17 08:04:51;;;;;;;17.83;9.60;;;;;;;;;;5071712;28;20016;-40
2022/10/17 08:07:17;;;;;;;23.00;10.15;;;;;;;;;;5071407;28;20375;-39
2022/10/17 08:09:43;;;;;;;22.40;10.10;;;;;;;;;;5071697;28;20024;-39
2022/10/17 08:12:08;;;;;;;23.25;10.43;;;;;;;;;;5070474;28;20025;-39
2022/10/17 08:14:34;;;;;;;17.05;9.63;;;;;;;;;;5071507;28;20553;-39
2022/10/17 08:16:59;;;;;;;19.63;9.15;;;;;;;;;;5071644;28;20056;-40
2022/10/17 08:19:24;;;;;;;18.02;10.38;;;;;;;;;;5071180;28;20025;-39
2022/10/17 08:21:51;;;;;;;17.13;9.43;;;;;;;;;;5071479;28;20044;-40
2022/10/17 08:24:16;;;;;;;22.83;10.27;;;;;;;;;;5071176;28;20028;-40
2022/10/17 08:26:42;;;;;;;16.90;8.80;;;;;;;;;;5071216;28;20047;-40
2022/10/17 08:29:11;;;;;;;24.45;10.57;;;;;;;;;;5071353;28;20029;-40
2022/10/17 08:31:37;;;;;;;17.13;7.60;;;;;;;;;;5071404;28;20082;-40
2022/10/17 08:34:02;;;;;;;17.38;9.15;;;;;;;;;;5071196;28;20424;-39
2022/10/17 08:36:28;;;;;;;21.90;10.65;;;;;;;;;;5070945;28;20445;-40
2022/10/17 08:38:53;;;;;;;18.52;7.95;;;;;;;;;;5071073;28;20474;-40
2022/10/17 08:41:18;;;;;;;18.92;9.88;;;;;;;;;;5071332;28;20035;-39
2022/10/17 08:43:44;;;;;;;18.50;8.55;;;;;;;;;;5071107;28;20020;-40
2022/10/17 08:46:09;;;;;;;17.55;8.63;;;;;;;;;;5071068;28;20074;-39
2022/10/17 08:48:38;;;;;;;19.45;10.25;;;;;;;;;;5070932;28;20078;-40
2022/10/17 08:51:26;;;;;;;18.60;9.55;;;;;;;;;;5070888;28;20077;-40
2022/10/17 08:54:05;;;;;;;19.27;7.72;;;;;;;;;;5070985;28;20406;-40
2022/10/17 08:56:40;;;;;;;23.50;9.88;;;;;;;;;;5071133;28;20127;-40
2022/10/17 08:59:10;;;;;;;15.38;8.65;;;;;;;;;;5074698;28;20047;-40
2022/10/17 09:01:53;;;;;;;19.77;8.43;;;;;;;;;;5074892;28;20024;-40
2022/10/17 09:04:18;;;;;;;13.63;7.68;;;;;;;;;;5074471;28;20029;-40
2022/10/17 09:06:44;;;;;;;16.65;9.35;;;;;;;;;;5074633;28;20031;-40
2022/10/17 09:09:09;;;;;;;12.95;7.43;;;;;;;;;;5074759;28;20052;-39
2022/10/17 09:11:48;;;;;;;14.63;8.48;;;;;;;;;;5074693;28;20517;-39
2022/10/17 09:14:20;;;;;;;18.20;8.77;;;;;;;;;;5074526;28;20120;-40
2022/10/17 09:17:15;;;;;;;17.05;10.05;;;;;;;;;;5074493;28;20033;-40
2022/10/17 09:20:04;;;;;;;13.15;7.75;;;;;;;;;;5069207;28;20371;-39
2022/10/17 09:22:33;;;;;;;14.88;8.00;;;;;;;;;;5071119;28;20044;-39
2022/10/17 09:25:02;;;;;;;21.35;10.35;;;;;;;;;;5074311;28;20032;-39
2022/10/17 09:27:30;;;;;;;13.57;7.95;;;;;;;;;;5074005;28;20044;-40
2022/10/17 09:30:14;;;;;;;16.48;7.93;;;;;;;;;;5074183;28;20127;-40
2022/10/17 09:32:41;;;;;;;20.20;9.02;;;;;;;;;;5072715;28;20505;-39
2022/10/17 09:35:19;;;;;;;15.35;8.68;;;;;;;;;;5073917;28;20144;-39
2022/10/17 09:37:45;;;;;;;12.48;7.97;;;;;;;;;;5072730;28;20502;-40
2022/10/17 09:40:25;;;;;;;14.82;6.82;;;;;;;;;;5073986;28;20154;-39
2022/10/17 09:42:52;;;;;;;20.33;8.77;;;;;;;;;;5074143;28;20040;-40
2022/10/17 09:45:24;;;;;;;18.48;8.02;;;;;;;;;;5073905;28;20390;-40
2022/10/17 09:47:56;;;;;;;13.88;7.72;;;;;;;;;;5073716;28;20044;-40
2022/10/17 09:50:25;;;;;;;11.23;7.28;;;;;;;;;;5073778;28;20036;-40
2022/10/17 09:52:52;;;;;;;11.90;7.60;;;;;;;;;;5073808;28;20141;-40
2022/10/17 09:55:38;;;;;;;15.10;7.75;;;;;;;;;;5073693;28;20035;-40
2022/10/17 09:58:04;;;;;;;14.75;8.55;;;;;;;;;;5073598;28;20029;-40
2022/10/17 10:00:31;;;;;;;15.80;8.13;;;;;;;;;;5073584;28;20027;-40
2022/10/17 10:03:16;;;;;;;13.50;6.75;;;;;;;;;;5073827;28;20025;-39
2022/10/17 10:05:42;;;;;;;17.20;7.93;;;;;;;;;;5073539;28;20382;-40
2022/10/17 10:08:12;;;;;;;18.75;7.30;;;;;;;;;;5073196;28;20367;-40
2022/10/17 10:10:41;;;;;;;17.40;7.75;;;;;;;;;;5073202;28;20028;-40
2022/10/17 10:13:10;;;;;;;15.50;6.93;;;;;;;;;;5073340;28;20805;-41
2022/10/17 10:15:37;;;;;;;15.38;7.72;;;;;;;;;;5073154;28;20032;-40
2022/10/17 10:18:03;;;;;;;16.80;8.43;;;;;;;;;;5073274;28;20107;-39
2022/10/17 10:20:30;;;;;;;14.05;8.05;;;;;;;;;;5073186;28;20115;-40
2022/10/17 10:23:20;;;;;;;15.15;6.93;;;;;;;;;;5073457;28;20028;-39
2022/10/17 10:25:53;;;;;;;12.25;7.18;;;;;;;;;;5073170;28;20048;-40
2022/10/17 10:28:19;;;;;;;21.85;8.43;;;;;;;;;;5072877;28;20042;-40
2022/10/17 10:30:46;;;;;;;12.90;7.20;;;;;;;;;;5073236;28;20440;-41
2022/10/17 10:33:12;;;;;;;14.38;7.43;;;;;;;;;;5073332;28;20032;-40
2022/10/17 10:35:38;;;;;;;14.68;8.68;;;;;;;;;;5072788;28;20819;-40
2022/10/17 10:38:09;;;;;;;14.38;7.47;;;;;;;;;;5073070;28;20464;-40
2022/10/17 10:40:43;;;;;;;17.13;8.20;;;;;;;;;;5072733;28;20049;-40
2022/10/17 10:43:18;;;;;;;15.25;8.52;;;;;;;;;;5072763;28;20043;-40
2022/10/17 10:45:44;;;;;;;11.75;7.28;;;;;;;;;;5071830;28;20028;-40
2022/10/17 10:48:21;;;;;;;11.93;7.32;;;;;;;;;;5072562;28;20486;-40
2022/10/17 10:50:55;;;;;;;16.73;9.05;;;;;;;;;;5072588;28;20032;-40
2022/10/17 10:53:40;;;;;;;9.77;6.38;;;;;;;;;;5072450;28;20032;-40
2022/10/17 10:56:20;;;;;;;17.20;7.70;;;;;;;;;;5072757;28;20112;-40
2022/10/17 10:58:48;;;;;;;15.38;7.57;;;;;;;;;;5072456;28;20029;-40
2022/10/17 11:01:33;;;;;;;10.60;6.43;;;;;;;;;;5072408;28;20021;-41
2022/10/17 11:04:05;;;;;;;16.60;7.68;;;;;;;;;;5068325;28;20086;-40
2022/10/17 11:06:34;;;;;;;18.13;7.95;;;;;;;;;;5070982;28;20036;-40
2022/10/17 11:09:09;;;;;;;15.57;7.40;;;;;;;;;;5072499;28;20055;-40
2022/10/17 11:11:39;;;;;;;12.18;7.20;;;;;;;;;;5072169;28;20020;-40
2022/10/17 11:14:14;;;;;;;12.82;6.80;;;;;;;;;;5072404;28;20027;-41
2022/10/17 11:16:59;;;;;;;16.55;6.70;;;;;;;;;;5072010;28;20774;-40
2022/10/17 11:19:25;;;;;;;14.77;8.50;;;;;;;;;;5060427;28;20433;-40
2022/10/17 11:22:09;;;;;;;12.35;6.55;;;;;;;;;;5070769;28;20025;-40
2022/10/17 11:24:37;;;;;;;10.80;6.47;;;;;;;;;;5071917;28;20033;-40
2022/10/17 11:27:04;;;;;;;17.58;8.20;;;;;;;;;;5071805;28;20082;-40
2022/10/17 11:29:31;;;;;;;14.23;7.45;;;;;;;;;;5071767;28;20036;-40
2022/10/17 11:31:58;;;;;;;14.88;6.78;;;;;;;;;;5071873;28;20447;-40
2022/10/17 11:34:25;;;;;;;11.98;7.13;;;;;;;;;;5071833;28;20429;-39
2022/10/17 11:36:57;;;;;;;12.05;6.82;;;;;;;;;;5070559;28;20039;-39
2022/10/17 11:39:28;;;;;;;16.83;8.07;;;;;;;;;;5070591;28;20059;-39
2022/10/17 11:42:01;;;;;;;12.90;6.72;;;;;;;;;;5071453;28;20033;-40
2022/10/17 11:44:38;;;;;;;12.18;6.80;;;;;;;;;;5070428;28;20047;-40
2022/10/17 11:47:18;;;;;;;13.38;6.28;;;;;;;;;;5071589;28;20040;-40
2022/10/17 11:49:46;;;;;;;16.88;6.38;;;;;;;;;;5071519;28;20040;-40
2022/10/17 11:52:21;;;;;;;13.48;7.53;;;;;;;;;;5070230;28;20052;-40
2022/10/17 11:54:53;;;;;;;13.73;7.28;;;;;;;;;;5071580;28;20128;-40
2022/10/17 11:57:18;;;;;;;13.85;8.23;;;;;;;;;;5071242;28;20063;-39
2022/10/17 11:59:53;;;;;;;11.07;6.75;;;;;;;;;;5071418;28;20379;-39
2022/10/17 12:02:39;;;;;;;13.90;6.93;;;;;;;;;;5071419;28;20025;-39
2022/10/17 12:05:09;;;;;;;15.40;8.50;;;;;;;;;;5067450;28;20053;-39
2022/10/17 12:07:51;;;;;;;14.90;7.85;;;;;;;;;;5071186;28;20097;-40
2022/10/17 12:10:26;;;;;;;14.07;7.28;;;;;;;;;;5071194;28;20467;-39
2022/10/17 12:12:52;;;;;;;15.40;7.85;;;;;;;;;;5070134;28;20056;-39
2022/10/17 12:15:18;;;;;;;16.58;6.97;;;;;;;;;;5071462;28;20025;-39
2022/10/17 12:17:46;;;;;;;12.23;7.30;;;;;;;;;;5071046;28;20029;-40
2022/10/17 12:20:23;;;;;;;13.52;7.93;;;;;;;;;;5071290;28;20100;-39
2022/10/17 12:22:51;;;;;;;13.98;7.15;;;;;;;;;;5071329;28;20104;-39
2022/10/17 12:25:29;;;;;;;15.18;6.22;;;;;;;;;;5069960;28;20021;-39
2022/10/17 12:28:11;;;;;;;11.63;7.03;;;;;;;;;;5071378;28;20040;-39
2022/10/17 12:30:48;;;;;;;12.60;7.73;;;;;;;;;;5071099;28;20120;-40
2022/10/17 12:33:14;;;;;;;12.23;7.05;;;;;;;;;;5074423;28;20299;-40
2022/10/17 12:35:39;;;;;;;14.07;7.95;;;;;;;;;;5075015;28;20053;-40
2022/10/17 12:38:18;;;;;;;11.75;7.35;;;;;;;;;;5075376;28;20478;-40
2022/10/17 12:40:46;;;;;;;12.55;5.90;;;;;;;;;;5075109;28;20107;-40
2022/10/17 12:43:14;;;;;;;12.27;6.60;;;;;;;;;;5075387;28;20070;-40
2022/10/17 12:45:45;;;;;;;17.02;7.72;;;;;;;;;;5074907;28;20032;-39
2022/10/17 12:48:10;;;;;;;11.05;7.18;;;;;;;;;;5074976;28;20056;-39
2022/10/17 12:50:55;;;;;;;14.30;7.20;;;;;;;;;;5075232;28;20024;-40
2022/10/17 12:53:23;;;;;;;19.60;7.85;;;;;;;;;;5074873;28;20604;-40
2022/10/17 12:55:50;;;;;;;11.77;6.28;;;;;;;;;;5074841;28;20020;-40
2022/10/17 12:58:16;;;;;;;14.60;7.00;;;;;;;;;;5074787;28;20090;-40
2022/10/17 13:00:44;;;;;;;11.45;7.07;;;;;;;;;;5074544;28;20016;-40
2022/10/17 13:03:15;;;;;;;16.58;6.47;;;;;;;;;;5074704;28;20037;-40
2022/10/17 13:05:53;;;;;;;11.80;6.28;;;;;;;;;;5074590;28;20028;-39
2022/10/17 13:08:20;;;;;;;15.15;7.05;;;;;;;;;;5073231;28;20043;-40
2022/10/17 13:10:47;;;;;;;15.40;8.15;;;;;;;;;;5074481;28;20081;-39
2022/10/17 13:13:16;;;;;;;13.35;7.30;;;;;;;;;;5074759;28;20021;-40
2022/10/17 13:15:54;;;;;;;10.40;6.38;;;;;;;;;;5074411;28;20390;-40
2022/10/17 13:18:21;;;;;;;11.35;6.18;;;;;;;;;;5074390;28;20028;-39
2022/10/17 13:20:56;;;;;;;14.35;6.95;;;;;;;;;;5074209;28;20070;-39
2022/10/17 13:23:23;;;;;;;14.25;7.57;;;;;;;;;;5074330;28;20036;-39
2022/10/17 13:26:00;;;;;;;12.80;7.90;;;;;;;;;;5074265;28;20119;-40
2022/10/17 13:28:27;;;;;;;18.85;6.35;;;;;;;;;;5074326;28;20068;-40
2022/10/17 13:30:53;;;;;;;12.73;7.40;;;;;;;;;;5074174;28;20040;-40
2022/10/17 13:33:31;;;;;;;21.70;7.45;;;;;;;;;;5074219;28;20474;-40
2022/10/17 13:35:56;;;;;;;16.58;8.30;;;;;;;;;;5073822;28;20045;-40
2022/10/17 13:38:24;;;;;;;18.23;7.38;;;;;;;;;;5074054;28;20501;-40
2022/10/17 13:40:50;;;;;;;14.52;8.57;;;;;;;;;;5074010;28;20064;-40
2022/10/17 13:43:17;;;;;;;11.27;7.25;;;;;;;;;;5072813;28;20114;-40
2022/10/17 13:45:51;;;;;;;18.45;8.95;;;;;;;;;;5073870;28;20044;-40
2022/10/17 13:48:24;;;;;;;13.52;7.10;;;;;;;;;;5072549;28;20043;-40
2022/10/17 13:50:55;;;;;;;10.77;6.50;;;;;;;;;;5073825;28;20047;-45
2022/10/17 13:53:34;;;;;;;15.40;7.60;;;;;;;;;;5072581;28;20039;-40
2022/10/17 13:56:09;;;;;;;14.85;8.43;;;;;;;;;;5073643;28;20033;-40
2022/10/17 13:58:39;;;;;;;13.15;7.28;;;;;;;;;;5073617;28;20154;-40
2022/10/17 14:01:06;;;;;;;11.73;6.90;;;;;;;;;;5073619;28;20081;-40
2022/10/17 14:03:32;;;;;;;13.82;8.00;;;;;;;;;;5073379;28;20024;-40
2022/10/17 14:06:02;;;;;;;14.82;8.65;;;;;;;;;;5073601;28;20700;-40
2022/10/17 14:08:29;;;;;;;14.15;7.20;;;;;;;;;;5073322;28;20035;-39
2022/10/17 14:10:55;;;;;;;17.45;7.95;;;;;;;;;;5073410;28;20028;-40
2022/10/17 14:13:23;;;;;;;15.85;8.27;;;;;;;;;;5073791;28;20029;-40
2022/10/17 14:15:49;;;;;;;16.35;7.75;;;;;;;;;;5073344;28;20108;-40
2022/10/17 14:18:19;;;;;;;14.25;7.68;;;;;;;;;;5071964;28;20107;-40
2022/10/17 14:20:46;;;;;;;15.13;9.45;;;;;;;;;;5055232;28;20112;-40
2022/10/17 14:23:32;;;;;;;10.77;6.32;;;;;;;;;;5073488;28;20031;-40
2022/10/17 14:26:05;;;;;;;16.60;8.05;;;;;;;;;;5073342;28;20032;-40
2022/10/17 14:28:30;;;;;;;13.13;7.70;;;;;;;;;;5073020;28;20044;-40
2022/10/17 14:31:08;;;;;;;15.10;7.47;;;;;;;;;;5071830;28;20028;-40
2022/10/17 14:33:34;;;;;;;15.90;8.05;;;;;;;;;;5072995;28;20021;-40
2022/10/17 14:36:00;;;;;;;15.27;7.00;;;;;;;;;;5072984;28;20063;-41
2022/10/17 14:38:26;;;;;;;22.35;9.38;;;;;;;;;;5073033;28;20039;-40
2022/10/17 14:40:58;;;;;;;14.45;7.28;;;;;;;;;;5072811;28;20036;-40
2022/10/17 14:43:24;;;;;;;15.35;7.90;;;;;;;;;;5073124;28;20035;-40
2022/10/17 14:45:50;;;;;;;16.60;8.38;;;;;;;;;;5072709;28;20028;-40
2022/10/17 14:48:19;;;;;;;16.75;9.13;;;;;;;;;;5072883;28;20122;-40
2022/10/17 14:51:03;;;;;;;14.30;8.27;;;;;;;;;;5072619;28;20029;-40
2022/10/17 14:53:31;;;;;;;13.82;7.57;;;;;;;;;;5072512;28;20120;-40
2022/10/17 14:55:58;;;;;;;13.60;8.38;;;;;;;;;;5072570;28;20016;-40
2022/10/17 14:58:31;;;;;;;12.18;7.13;;;;;;;;;;5072492;28;20115;-40
2022/10/17 15:00:57;;;;;;;16.50;8.40;;;;;;;;;;5072476;28;20028;-40
2022/10/17 15:03:23;;;;;;;19.30;8.30;;;;;;;;;;5072679;28;20028;-40
2022/10/17 15:05:49;;;;;;;17.42;8.98;;;;;;;;;;5072357;28;20098;-40
2022/10/17 15:08:16;;;;;;;14.10;6.85;;;;;;;;;;5072400;28;20427;-40
2022/10/17 15:10:42;;;;;;;17.95;9.00;;;;;;;;;;5072201;28;20029;-40
2022/10/17 15:13:08;;;;;;;18.75;8.30;;;;;;;;;;5072611;28;20024;-40
2022/10/17 15:15:35;;;;;;;15.85;8.93;;;;;;;;;;5072008;28;20025;-40
2022/10/17 15:18:00;;;;;;;19.25;8.60;;;;;;;;;;5072099;28;20036;-40
2022/10/17 15:20:29;;;;;;;12.82;7.43;;;;;;;;;;5070776;28;20581;-40
2022/10/17 15:22:55;;;;;;;13.23;7.78;;;;;;;;;;5071987;28;20070;-40
2022/10/17 15:25:21;;;;;;;15.80;7.68;;;;;;;;;;5072017;28;20042;-39
2022/10/17 15:27:46;;;;;;;17.02;8.43;;;;;;;;;;5071798;28;20028;-40
2022/10/17 15:30:31;;;;;;;19.58;9.13;;;;;;;;;;5071850;28;20044;-40
2022/10/17 15:32:57;;;;;;;15.40;7.95;;;;;;;;;;5072135;28;20037;-40
2022/10/17 15:35:23;;;;;;;16.92;9.38;;;;;;;;;;5071627;28;20406;-40
2022/10/17 15:37:48;;;;;;;14.68;9.10;;;;;;;;;;5071975;28;20105;-40
2022/10/17 15:40:18;;;;;;;19.58;9.10;;;;;;;;;;5071781;28;20533;-40
2022/10/17 15:42:44;;;;;;;21.27;10.02;;;;;;;;;;5071923;28;20071;-40
2022/10/17 15:45:16;;;;;;;27.13;10.70;;;;;;;;;;5071698;28;20494;-40
2022/10/17 15:47:44;;;;;;;15.93;9.15;;;;;;;;;;5071467;28;20028;-40
2022/10/17 15:50:14;;;;;;;19.48;10.10;;;;;;;;;;5070380;28;20041;-40
2022/10/17 15:52:40;;;;;;;18.90;8.45;;;;;;;;;;5071606;28;20090;-40
2022/10/17 15:55:06;;;;;;;23.50;10.13;;;;;;;;;;5071801;28;20059;-40
2022/10/17 15:57:33;;;;;;;16.50;8.23;;;;;;;;;;5071359;28;20028;-40
2022/10/17 15:59:59;;;;;;;22.05;9.45;;;;;;;;;;5071544;28;20052;-40
2022/10/17 16:02:25;;;;;;;22.85;11.63;;;;;;;;;;5071790;28;20032;-40
2022/10/17 16:04:51;;;;;;;24.73;9.13;;;;;;;;;;5071320;28;20036;-40
2022/10/17 16:07:17;;;;;;;19.08;10.52;;;;;;;;;;5070727;28;20119;-40
2022/10/17 16:09:43;;;;;;;20.73;10.18;;;;;;;;;;5071251;28;20047;-40
2022/10/17 16:12:14;;;;;;;23.13;11.32;;;;;;;;;;5071651;28;20028;-40
2022/10/17 16:14:40;;;;;;;24.02;10.60;;;;;;;;;;5071320;28;20029;-40
2022/10/17 16:17:05;;;;;;;21.95;10.00;;;;;;;;;;5071382;28;20482;-40
2022/10/17 16:19:31;;;;;;;23.35;11.55;;;;;;;;;;5071163;28;20059;-40
2022/10/17 16:21:56;;;;;;;20.27;11.13;;;;;;;;;;5071399;28;20374;-40
2022/10/17 16:24:23;;;;;;;20.77;9.32;;;;;;;;;;5071282;28;20761;-40
2022/10/17 16:26:48;;;;;;;23.55;10.32;;;;;;;;;;5071076;28;20023;-40
2022/10/17 16:29:14;;;;;;;28.80;12.10;;;;;;;;;;5071113;28;20068;-40
2022/10/17 16:31:41;;;;;;;26.05;12.48;;;;;;;;;;5071144;28;20020;-40
2022/10/17 16:34:07;;;;;;;23.83;11.18;;;;;;;;;;5071155;28;20047;-40
2022/10/17 16:36:33;;;;;;;20.42;11.13;;;;;;;;;;5070951;28;20507;-40
2022/10/17 16:38:59;;;;;;;25.30;10.57;;;;;;;;;;5071366;28;20085;-40
2022/10/17 16:41:26;;;;;;;26.00;11.75;;;;;;;;;;5071314;28;20024;-40
2022/10/17 16:43:52;;;;;;;18.35;9.80;;;;;;;;;;5071163;28;20025;-40
2022/10/17 16:46:18;;;;;;;28.90;12.93;;;;;;;;;;5071044;28;20020;-39
2022/10/17 16:48:44;;;;;;;24.27;11.38;;;;;;;;;;5070824;28;20044;-40
2022/10/17 16:51:10;;;;;;;25.00;11.50;;;;;;;;;;5071025;28;20020;-40
2022/10/17 16:53:38;;;;;;;26.73;11.57;;;;;;;;;;5070943;28;20024;-40
2022/10/17 16:56:05;;;;;;;26.83;13.30;;;;;;;;;;5070947;28;20021;-40
2022/10/17 16:58:31;;;;;;;19.73;10.32;;;;;;;;;;5070855;28;20564;-40
2022/10/17 17:01:04;;;;;;;23.83;11.05;;;;;;;;;;5070941;28;20048;-40
2022/10/17 17:03:29;;;;;;;24.10;11.23;;;;;;;;;;5070873;28;20117;-40
2022/10/17 17:05:55;;;;;;;23.33;11.70;;;;;;;;;;5071181;28;20475;-40
2022/10/17 17:08:20;;;;;;;26.30;13.48;;;;;;;;;;5070635;28;20067;-40
2022/10/17 17:10:48;;;;;;;35.15;12.68;;;;;;;;;;5070829;28;20024;-40
2022/10/17 17:13:14;;;;;;;28.15;14.20;;;;;;;;;;5070707;28;20033;-40
2022/10/17 17:15:40;;;;;;;27.23;12.45;;;;;;;;;;5070605;28;20170;-40
2022/10/17 17:18:05;;;;;;;29.50;15.82;;;;;;;;;;5072056;28;20025;-40
2022/10/17 17:20:31;;;;;;;25.67;12.80;;;;;;;;;;5074262;28;20378;-40
2022/10/17 17:22:57;;;;;;;25.45;11.75;;;;;;;;;;5074318;28;20033;-40
2022/10/17 17:25:22;;;;;;;23.50;12.25;;;;;;;;;;5074626;28;20027;-40
2022/10/17 17:27:48;;;;;;;22.98;10.80;;;;;;;;;;5074350;28;20082;-40
2022/10/17 17:30:13;;;;;;;22.80;12.55;;;;;;;;;;5074167;28;20536;-40
2022/10/17 17:32:39;;;;;;;27.42;11.25;;;;;;;;;;5074194;28;20086;-40
2022/10/17 17:35:05;;;;;;;24.40;12.85;;;;;;;;;;5073939;28;20079;-40
2022/10/17 17:37:34;;;;;;;24.50;11.57;;;;;;;;;;5072794;28;20041;-40
2022/10/17 17:40:00;;;;;;;20.83;10.90;;;;;;;;;;5074079;28;20020;-40
2022/10/17 17:42:25;;;;;;;22.70;11.32;;;;;;;;;;5074003;28;20055;-40
2022/10/17 17:44:51;;;;;;;20.33;11.23;;;;;;;;;;5073839;28;20016;-40
2022/10/17 17:47:17;;;;;;;18.50;10.18;;;;;;;;;;5073828;28;20099;-40
2022/10/17 17:49:42;;;;;;;19.13;10.73;;;;;;;;;;5073675;28;20043;-40
2022/10/17 17:52:08;;;;;;;23.83;11.23;;;;;;;;;;5073796;28;20382;-40
2022/10/17 17:54:34;;;;;;;24.73;10.98;;;;;;;;;;5073712;28;20063;-40